Time;durP1;ratioP1;P1;durP2;ratioP2;P2;SDS_P1;SDS_P2;PMS_P1;PMS_P2;Temp;Humidity;BMP_temperature;BMP_pressure;BME280_temperature;BME280_humidity;BME280_pressure;Samples;Min_cycle;Max_cycle;Signal;HPM_P1;HPM_P2
2022/01/08 00:01:00;;;;;;;34.13;9.52;;;1.90;99.90;;;;;;5099902;28;20638;-71
2022/01/08 00:03:25;;;;;;;26.80;9.65;;;1.90;99.90;;;;;;5095791;28;20040;-71
2022/01/08 00:05:52;;;;;;;29.48;9.88;;;1.90;99.90;;;;;;5098572;28;20047;-73
2022/01/08 00:08:17;;;;;;;26.25;9.20;;;1.90;99.90;;;;;;5092724;28;20035;-72
2022/01/08 00:10:43;;;;;;;36.92;10.35;;;1.90;99.90;;;;;;5085859;28;20042;-72
2022/01/08 00:13:09;;;;;;;28.48;10.57;;;1.90;99.90;;;;;;5095980;28;20040;-73
2022/01/08 00:15:35;;;;;;;35.92;11.57;;;1.90;99.90;;;;;;5080206;28;20041;-71
2022/01/08 00:18:01;;;;;;;39.85;12.93;;;1.90;99.90;;;;;;5092705;28;20054;-72
2022/01/08 00:20:30;;;;;;;44.50;13.45;;;2.00;99.90;;;;;;5087722;28;20040;-73
2022/01/08 00:22:57;;;;;;;51.78;16.58;;;2.00;99.90;;;;;;5081422;28;20040;-74
2022/01/08 00:25:22;;;;;;;48.50;16.40;;;1.90;99.90;;;;;;5095428;28;20055;-73
2022/01/08 00:27:48;;;;;;;51.42;15.52;;;1.90;99.90;;;;;;5079225;28;20036;-72
2022/01/08 00:30:13;;;;;;;45.90;16.73;;;1.90;99.90;;;;;;5087020;28;20040;-72
2022/01/08 00:32:40;;;;;;;56.80;19.45;;;1.90;99.90;;;;;;5084389;28;20543;-74
2022/01/08 00:35:10;;;;;;;54.40;18.08;;;1.90;99.90;;;;;;5086956;28;20032;-74
2022/01/08 00:37:39;;;;;;;56.17;17.75;;;1.90;99.90;;;;;;5087975;28;20036;-74
2022/01/08 00:40:07;;;;;;;51.80;16.80;;;1.80;99.90;;;;;;5085170;28;20130;-74
2022/01/08 00:42:32;;;;;;;48.88;16.50;;;1.70;99.90;;;;;;5090777;28;20436;-74
2022/01/08 00:44:58;;;;;;;47.78;16.63;;;1.70;99.90;;;;;;5095868;28;20040;-74
2022/01/08 00:47:23;;;;;;;47.20;17.08;;;1.50;99.90;;;;;;5100342;28;20069;-74
2022/01/08 00:49:49;;;;;;;56.70;18.45;;;1.50;99.90;;;;;;5087699;28;20044;-74
2022/01/08 00:52:14;;;;;;;48.63;18.58;;;1.40;99.90;;;;;;5104280;28;20043;-74
2022/01/08 00:54:40;;;;;;;48.85;18.40;;;1.30;99.90;;;;;;5104148;28;20043;-73
2022/01/08 00:57:06;;;;;;;55.88;19.73;;;1.30;99.90;;;;;;5092567;28;20036;-73
2022/01/08 00:59:32;;;;;;;57.60;20.02;;;1.30;99.90;;;;;;5087693;28;20123;-74
2022/01/08 01:01:57;;;;;;;62.38;21.85;;;1.30;99.90;;;;;;5092668;28;20421;-74
2022/01/08 01:04:23;;;;;;;67.10;21.48;;;1.20;99.90;;;;;;5091156;28;20036;-73
2022/01/08 01:06:48;;;;;;;62.05;21.83;;;1.10;99.90;;;;;;5101965;28;20044;-71
2022/01/08 01:09:14;;;;;;;63.72;22.02;;;1.10;99.90;;;;;;5093803;28;20491;-71
2022/01/08 01:11:40;;;;;;;68.47;23.55;;;1.20;99.90;;;;;;5095788;28;20035;-71
2022/01/08 01:14:06;;;;;;;69.72;23.88;;;1.10;99.90;;;;;;5086825;28;20043;-73
2022/01/08 01:16:32;;;;;;;65.50;23.13;;;1.10;99.90;;;;;;5104588;28;20040;-73
2022/01/08 01:18:59;;;;;;;73.80;24.30;;;1.10;99.90;;;;;;5079760;28;20043;-72
2022/01/08 01:21:25;;;;;;;74.10;23.90;;;1.10;99.90;;;;;;5084171;28;20139;-72
2022/01/08 01:23:51;;;;;;;66.10;23.75;;;1.20;99.90;;;;;;5094225;28;20119;-72
2022/01/08 01:26:22;;;;;;;73.22;23.55;;;1.20;99.90;;;;;;5082857;28;20040;-71
2022/01/08 01:47:17;;;;;;;71.22;22.15;;;1.20;99.90;;;;;;5087244;28;20466;-70
2022/01/08 01:49:45;;;;;;;72.97;21.85;;;1.30;99.90;;;;;;5086842;28;20036;-70
2022/01/08 01:52:13;;;;;;;68.18;22.02;;;1.40;99.90;;;;;;5085330;28;20048;-71
2022/01/08 01:54:40;;;;;;;75.90;21.20;;;1.40;99.90;;;;;;5095463;28;20122;-71
2022/01/08 01:57:07;;;;;;;65.00;21.25;;;1.50;99.90;;;;;;5081710;28;20453;-70
2022/01/08 01:59:34;;;;;;;63.75;19.60;;;1.50;99.90;;;;;;5085893;28;20051;-71
2022/01/08 02:02:03;;;;;;;56.00;17.13;;;1.50;99.90;;;;;;5069975;28;20032;-70
2022/01/08 02:04:29;;;;;;;56.70;17.23;;;1.40;99.90;;;;;;5083909;28;20079;-69
2022/01/08 02:06:54;;;;;;;53.38;16.20;;;1.40;99.90;;;;;;5067034;28;20090;-71
2022/01/08 02:09:20;;;;;;;57.03;16.35;;;1.40;99.90;;;;;;5082636;28;20537;-68
2022/01/08 02:12:02;;;;;;;38.78;15.70;;;1.40;99.90;;;;;;5086793;28;20052;-69
2022/01/08 02:14:29;;;;;;;47.75;14.45;;;1.50;99.90;;;;;;5086185;28;20040;-69
2022/01/08 02:16:55;;;;;;;48.42;14.55;;;1.50;99.90;;;;;;5090506;28;20067;-72
2022/01/08 02:19:21;;;;;;;52.50;15.95;;;1.50;99.90;;;;;;5084718;28;20129;-71
2022/01/08 02:21:49;;;;;;;43.83;15.05;;;1.50;99.90;;;;;;5083069;28;20459;-72
2022/01/08 02:24:14;;;;;;;39.30;14.02;;;1.50;99.90;;;;;;5086536;28;20552;-72
2022/01/08 02:26:41;;;;;;;55.47;16.08;;;1.50;99.90;;;;;;5089984;28;20039;-72
2022/01/08 02:29:12;;;;;;;50.85;14.95;;;1.50;99.90;;;;;;5081222;28;20050;-74
2022/01/08 02:31:39;;;;;;;58.00;16.05;;;1.50;99.90;;;;;;5097466;28;20114;-73
2022/01/08 02:34:05;;;;;;;57.20;17.63;;;1.50;99.90;;;;;;5084946;28;20560;-73
2022/01/08 02:36:31;;;;;;;47.65;15.85;;;1.50;99.90;;;;;;5087237;28;20036;-73
2022/01/08 02:38:57;;;;;;;53.70;16.58;;;1.60;99.90;;;;;;5085803;28;20043;-72
2022/01/08 02:41:22;;;;;;;53.70;16.95;;;1.60;99.90;;;;;;5085883;28;20043;-71
2022/01/08 02:43:53;;;;;;;51.38;17.38;;;1.60;99.90;;;;;;5093482;28;20045;-70
2022/01/08 02:46:19;;;;;;;50.67;15.48;;;1.70;99.90;;;;;;5101676;28;20071;-70
2022/01/08 02:48:44;;;;;;;57.35;14.85;;;1.70;99.90;;;;;;5081274;28;20036;-71
2022/01/08 02:51:10;;;;;;;46.75;14.88;;;1.70;99.90;;;;;;5068815;28;20101;-72
2022/01/08 02:53:37;;;;;;;42.58;13.20;;;1.60;99.90;;;;;;5067571;28;20045;-71
2022/01/08 02:56:03;;;;;;;48.53;13.68;;;1.60;99.90;;;;;;5077468;28;20032;-71
2022/01/08 02:58:28;;;;;;;46.97;14.23;;;1.60;99.90;;;;;;5092268;28;20036;-71
2022/01/08 03:00:56;;;;;;;44.17;14.23;;;1.60;99.90;;;;;;5086002;28;20188;-71
2022/01/08 03:03:21;;;;;;;45.00;14.50;;;1.60;99.90;;;;;;5084409;28;20036;-73
2022/01/08 03:05:47;;;;;;;53.60;15.13;;;1.60;99.90;;;;;;5097935;28;20089;-72
2022/01/08 03:08:12;;;;;;;42.33;13.95;;;1.60;99.90;;;;;;5090710;28;20173;-71
2022/01/08 03:10:38;;;;;;;52.97;16.05;;;1.60;99.90;;;;;;5088767;28;20042;-69
2022/01/08 03:13:05;;;;;;;55.88;17.85;;;1.60;99.90;;;;;;5096409;28;20111;-70
2022/01/08 03:15:32;;;;;;;67.70;18.90;;;1.60;99.90;;;;;;5094191;28;20391;-70
2022/01/08 03:17:58;;;;;;;67.10;19.70;;;1.70;99.90;;;;;;5097279;28;20101;-69
2022/01/08 03:20:23;;;;;;;59.60;18.35;;;1.60;99.90;;;;;;5082296;28;20040;-68
2022/01/08 03:22:49;;;;;;;70.70;20.27;;;1.60;99.90;;;;;;5100156;28;20398;-70
2022/01/08 03:25:15;;;;;;;66.95;21.45;;;1.60;99.90;;;;;;5095981;28;20498;-69
2022/01/08 03:27:41;;;;;;;67.88;20.23;;;1.50;99.90;;;;;;5089328;28;20051;-69
2022/01/08 03:30:09;;;;;;;73.35;20.83;;;1.50;99.90;;;;;;5097316;28;20044;-69
2022/01/08 03:32:34;;;;;;;71.68;21.50;;;1.50;99.90;;;;;;5091068;28;20039;-69
2022/01/08 03:35:00;;;;;;;63.20;19.58;;;1.40;99.90;;;;;;5083342;28;20036;-69
2022/01/08 03:37:26;;;;;;;64.22;21.35;;;1.40;99.90;;;;;;5073635;28;20073;-70
2022/01/08 03:39:51;;;;;;;81.88;23.30;;;1.30;99.90;;;;;;5091205;28;20121;-71
2022/01/08 03:42:17;;;;;;;69.22;21.85;;;1.30;99.90;;;;;;5090897;28;20082;-69
2022/01/08 03:44:42;;;;;;;65.60;20.67;;;1.30;99.90;;;;;;5097381;28;20057;-70
2022/01/08 03:49:51;;;;;;;65.10;20.45;;;1.20;99.90;;;;;;5104007;28;20076;-69
2022/01/08 03:52:17;;;;;;;78.93;24.27;;;1.20;99.90;;;;;;5083119;28;20072;-69
2022/01/08 03:54:42;;;;;;;83.18;23.25;;;1.20;99.90;;;;;;5092061;28;20123;-71
2022/01/08 03:57:08;;;;;;;75.15;25.38;;;1.10;99.90;;;;;;5098418;28;20029;-69
2022/01/08 03:59:34;;;;;;;75.30;23.45;;;1.10;99.90;;;;;;5069611;28;20146;-69
2022/01/08 04:01:59;;;;;;;76.70;22.25;;;1.10;99.90;;;;;;5096929;28;20040;-71
2022/01/08 04:04:25;;;;;;;78.82;23.58;;;1.00;99.90;;;;;;5068839;28;20043;-70
2022/01/08 04:06:51;;;;;;;76.18;22.00;;;1.00;99.90;;;;;;5094916;28;20040;-70
2022/01/08 04:09:17;;;;;;;75.30;21.85;;;1.00;99.90;;;;;;5079432;28;20036;-69
2022/01/08 04:11:43;;;;;;;67.53;20.10;;;0.90;99.90;;;;;;5089974;28;20036;-71
2022/01/08 04:14:08;;;;;;;59.60;17.92;;;1.00;99.90;;;;;;5089086;28;20039;-72
2022/01/08 04:16:37;;;;;;;57.30;18.67;;;1.00;99.90;;;;;;5086668;28;20479;-70
2022/01/08 04:19:03;;;;;;;70.50;17.98;;;1.00;99.90;;;;;;5089280;28;20040;-71
2022/01/08 04:24:01;;;;;;;58.08;14.90;;;1.00;99.90;;;;;;5086552;28;20044;-69
2022/01/08 04:26:27;;;;;;;49.35;14.65;;;1.00;99.90;;;;;;5089587;28;20036;-71
2022/01/08 04:28:53;;;;;;;51.38;14.90;;;1.10;99.90;;;;;;5089845;28;20439;-69
2022/01/08 04:31:19;;;;;;;51.25;13.90;;;1.10;99.90;;;;;;5089092;28;20051;-72
2022/01/08 04:33:45;;;;;;;42.60;13.07;;;1.20;99.90;;;;;;5090716;28;20044;-71
2022/01/08 04:36:11;;;;;;;44.38;12.38;;;1.10;99.90;;;;;;5094142;28;20038;-70
2022/01/08 04:38:36;;;;;;;39.90;12.48;;;1.20;99.90;;;;;;5090607;28;20074;-71
2022/01/08 04:41:02;;;;;;;46.78;12.35;;;1.10;99.90;;;;;;5081425;28;20036;-71
2022/01/08 04:43:28;;;;;;;41.88;11.43;;;1.10;99.90;;;;;;5073292;28;20036;-72
2022/01/08 04:45:54;;;;;;;39.78;11.40;;;1.00;99.90;;;;;;5084662;28;20044;-71
2022/01/08 04:48:20;;;;;;;38.10;11.43;;;1.00;99.90;;;;;;5090955;28;20040;-70
2022/01/08 04:50:46;;;;;;;37.33;10.55;;;1.00;99.90;;;;;;5059224;28;20525;-69
2022/01/08 04:53:12;;;;;;;33.42;9.25;;;1.10;99.90;;;;;;5089155;28;20028;-70
2022/01/08 04:55:38;;;;;;;32.72;9.70;;;1.00;99.90;;;;;;5071717;28;20157;-69
2022/01/08 04:58:05;;;;;;;30.25;9.13;;;1.10;99.90;;;;;;5071107;28;20085;-69
2022/01/08 05:00:32;;;;;;;38.95;9.27;;;1.10;99.90;;;;;;5089337;28;20127;-70
2022/01/08 05:02:58;;;;;;;37.38;9.57;;;1.10;99.90;;;;;;5090319;28;20044;-69
2022/01/08 05:05:24;;;;;;;36.22;11.15;;;1.10;99.90;;;;;;5090144;28;20048;-70
2022/01/08 05:07:49;;;;;;;35.28;10.30;;;1.00;99.90;;;;;;5094829;28;20037;-69
2022/01/08 05:10:15;;;;;;;35.08;10.27;;;0.90;99.90;;;;;;5078259;28;20039;-70
2022/01/08 05:12:41;;;;;;;45.28;11.10;;;0.90;99.90;;;;;;5096287;28;20033;-69
2022/01/08 05:15:07;;;;;;;41.83;12.30;;;0.90;99.90;;;;;;5082764;28;20126;-70
2022/01/08 05:17:35;;;;;;;40.63;11.52;;;0.90;99.90;;;;;;5089707;28;20032;-70
2022/01/08 05:20:03;;;;;;;43.40;11.55;;;0.80;99.90;;;;;;5090373;28;20070;-69
2022/01/08 05:22:39;;;;;;;38.78;11.98;;;0.90;99.90;;;;;;5090256;28;20170;-68
2022/01/08 05:25:05;;;;;;;45.13;13.18;;;0.80;99.90;;;;;;5088210;28;20085;-69
2022/01/08 05:27:31;;;;;;;51.00;13.15;;;0.80;99.90;;;;;;5082865;28;20040;-69
2022/01/08 05:29:57;;;;;;;51.92;13.30;;;0.80;99.90;;;;;;5088767;28;20070;-70
2022/01/08 05:32:22;;;;;;;46.72;12.93;;;0.80;99.90;;;;;;5088981;28;20042;-71
2022/01/08 05:34:50;;;;;;;40.00;12.25;;;0.80;99.90;;;;;;5089330;28;20028;-70
2022/01/08 05:37:17;;;;;;;46.97;13.27;;;0.70;99.90;;;;;;5086252;28;20122;-70
2022/01/08 05:39:44;;;;;;;47.00;13.73;;;0.70;99.90;;;;;;5080920;28;20051;-70
2022/01/08 05:42:09;;;;;;;48.33;13.43;;;0.60;99.90;;;;;;5080741;28;20454;-69
2022/01/08 05:44:35;;;;;;;55.15;13.43;;;0.60;99.90;;;;;;5089660;28;20041;-70
2022/01/08 05:47:01;;;;;;;42.47;13.18;;;0.70;99.90;;;;;;5085337;28;20051;-70
2022/01/08 05:49:27;;;;;;;44.00;13.63;;;0.70;99.90;;;;;;5082912;28;20436;-70
2022/01/08 05:51:52;;;;;;;49.55;12.18;;;0.70;99.90;;;;;;5088383;28;20047;-69
2022/01/08 05:54:18;;;;;;;45.83;14.27;;;0.70;99.90;;;;;;5088844;28;20126;-69
2022/01/08 05:56:43;;;;;;;50.28;13.80;;;0.70;99.90;;;;;;5088299;28;20071;-69
2022/01/08 05:59:09;;;;;;;41.45;12.07;;;0.70;99.90;;;;;;5088826;28;20032;-70
2022/01/08 06:01:35;;;;;;;51.78;12.68;;;0.70;99.90;;;;;;5084007;28;20044;-71
2022/01/08 06:04:01;;;;;;;46.92;12.60;;;0.70;99.90;;;;;;5075461;28;20040;-70
2022/01/08 06:06:27;;;;;;;51.05;12.60;;;0.70;99.90;;;;;;5082419;28;20040;-70
2022/01/08 06:08:52;;;;;;;40.17;12.32;;;0.70;99.90;;;;;;5086454;28;20051;-71
2022/01/08 06:11:18;;;;;;;38.60;12.32;;;0.60;99.90;;;;;;5085175;28;20033;-71
2022/01/08 06:13:44;;;;;;;42.88;12.38;;;0.60;99.90;;;;;;5089086;28;20050;-71
2022/01/08 06:16:10;;;;;;;47.65;12.75;;;0.70;99.90;;;;;;5080152;28;20044;-69
2022/01/08 06:18:36;;;;;;;57.10;14.00;;;0.60;99.90;;;;;;5086504;28;20046;-70
2022/01/08 06:21:03;;;;;;;49.53;13.57;;;0.50;99.90;;;;;;5096154;28;20040;-69
2022/01/08 06:23:29;;;;;;;49.22;13.02;;;0.50;99.90;;;;;;5082501;28;20043;-71
2022/01/08 06:25:55;;;;;;;44.67;12.43;;;0.50;99.90;;;;;;5091337;28;20040;-70
2022/01/08 06:28:20;;;;;;;40.53;13.10;;;0.50;99.90;;;;;;5091417;28;20282;-71
2022/01/08 06:30:47;;;;;;;43.28;14.38;;;0.50;99.90;;;;;;5092535;28;20119;-70
2022/01/08 06:33:17;;;;;;;48.17;13.18;;;0.40;99.90;;;;;;5093082;28;20040;-69
2022/01/08 06:35:43;;;;;;;48.90;12.93;;;0.40;99.90;;;;;;5092938;28;20032;-70
2022/01/08 06:38:09;;;;;;;44.50;13.13;;;0.40;99.90;;;;;;5096209;28;20032;-70
2022/01/08 06:40:34;;;;;;;43.20;12.98;;;0.40;99.90;;;;;;5086083;28;20039;-69
2022/01/08 06:43:00;;;;;;;51.45;13.07;;;0.40;99.90;;;;;;5092385;28;20060;-69
2022/01/08 06:45:26;;;;;;;49.85;13.15;;;0.40;99.90;;;;;;5086608;28;20052;-70
2022/01/08 06:47:51;;;;;;;47.28;13.07;;;0.40;99.90;;;;;;5082488;28;20402;-70
2022/01/08 06:50:17;;;;;;;47.50;12.05;;;0.40;99.90;;;;;;5091220;28;20467;-69
2022/01/08 06:52:42;;;;;;;46.13;11.00;;;0.40;99.90;;;;;;5094130;28;20493;-70
2022/01/08 06:55:08;;;;;;;39.60;11.52;;;0.40;99.90;;;;;;5104995;28;20040;-69
2022/01/08 06:57:34;;;;;;;46.95;12.05;;;0.40;99.90;;;;;;5091586;28;20035;-69
2022/01/08 07:00:03;;;;;;;48.05;11.88;;;0.40;99.90;;;;;;5091376;28;20036;-69
2022/01/08 07:02:29;;;;;;;53.45;11.15;;;0.40;99.90;;;;;;5091191;28;20111;-69
2022/01/08 07:04:54;;;;;;;45.03;9.82;;;0.40;99.90;;;;;;5091661;28;20140;-69
2022/01/08 07:07:20;;;;;;;39.30;9.98;;;0.40;99.90;;;;;;5089066;28;20055;-70
2022/01/08 07:09:45;;;;;;;43.15;10.07;;;0.40;99.90;;;;;;5089167;28;20126;-69
2022/01/08 07:12:11;;;;;;;30.75;9.10;;;0.50;99.90;;;;;;5088686;28;20443;-69
2022/01/08 07:14:36;;;;;;;38.53;9.38;;;0.40;99.90;;;;;;5085989;28;20067;-69
2022/01/08 07:17:02;;;;;;;32.78;8.90;;;0.50;99.90;;;;;;5084102;28;20028;-69
2022/01/08 07:19:28;;;;;;;35.92;9.50;;;0.40;99.90;;;;;;5091501;28;20129;-69
2022/01/08 07:21:54;;;;;;;40.33;9.63;;;0.50;99.90;;;;;;5091768;28;20032;-70
2022/01/08 07:24:19;;;;;;;37.03;9.88;;;0.40;99.90;;;;;;5091817;28;20066;-69
2022/01/08 07:26:44;;;;;;;39.78;10.00;;;0.40;99.90;;;;;;5091514;28;20086;-69
2022/01/08 07:29:10;;;;;;;38.85;10.48;;;0.40;99.90;;;;;;5087259;28;20047;-69
2022/01/08 07:31:36;;;;;;;44.80;11.35;;;0.50;99.90;;;;;;5084855;28;20439;-69
2022/01/08 07:34:01;;;;;;;37.70;10.38;;;0.60;99.90;;;;;;5095797;28;20037;-69
2022/01/08 07:36:27;;;;;;;35.85;10.48;;;0.60;99.90;;;;;;5081295;28;20498;-68
2022/01/08 07:38:52;;;;;;;40.00;11.57;;;0.60;99.90;;;;;;5083563;28;20040;-69
2022/01/08 07:41:18;;;;;;;39.40;10.10;;;0.60;99.90;;;;;;5073067;28;20093;-69
2022/01/08 07:43:44;;;;;;;42.83;11.30;;;0.70;99.90;;;;;;5092362;28;20060;-68
2022/01/08 07:46:09;;;;;;;41.05;11.00;;;0.70;99.90;;;;;;5085897;28;20036;-67
2022/01/08 07:48:35;;;;;;;40.22;11.73;;;0.70;99.90;;;;;;5083396;28;20126;-68
2022/01/08 07:51:01;;;;;;;49.65;11.75;;;0.70;99.90;;;;;;5082900;28;20417;-68
2022/01/08 07:53:26;;;;;;;45.45;11.40;;;0.70;99.90;;;;;;5087949;28;20490;-68
2022/01/08 07:55:52;;;;;;;45.03;10.90;;;0.60;99.90;;;;;;5088253;28;20077;-68
2022/01/08 07:58:20;;;;;;;43.08;11.07;;;0.70;99.90;;;;;;5080286;28;21894;-69
2022/01/08 08:00:47;;;;;;;37.63;10.25;;;0.70;99.90;;;;;;5085272;28;20074;-67
2022/01/08 08:03:13;;;;;;;42.35;10.90;;;0.70;99.90;;;;;;5089432;28;20482;-69
2022/01/08 08:05:39;;;;;;;40.58;11.60;;;0.70;99.90;;;;;;5090106;28;20097;-68
2022/01/08 08:08:04;;;;;;;39.40;11.93;;;0.70;99.90;;;;;;5100529;28;20042;-68
2022/01/08 08:10:30;;;;;;;47.53;12.20;;;0.70;99.90;;;;;;5090179;28;20036;-68
2022/01/08 08:12:58;;;;;;;38.22;11.30;;;0.70;99.90;;;;;;5093838;28;20036;-68
2022/01/08 08:15:24;;;;;;;37.08;11.32;;;0.70;99.90;;;;;;5088470;28;20061;-68
2022/01/08 08:17:51;;;;;;;39.67;11.25;;;0.70;99.90;;;;;;5088359;28;20046;-68
2022/01/08 08:20:16;;;;;;;38.38;11.85;;;0.80;99.90;;;;;;5089587;28;20047;-68
2022/01/08 08:22:42;;;;;;;43.97;12.63;;;0.80;99.90;;;;;;5096173;28;20040;-68
2022/01/08 08:25:10;;;;;;;40.25;12.65;;;0.80;99.90;;;;;;5102468;27;20188;-68
2022/01/08 08:27:37;;;;;;;43.38;11.82;;;0.80;99.90;;;;;;5090552;28;20070;-69
2022/01/08 08:30:03;;;;;;;48.17;12.07;;;0.80;99.90;;;;;;5086782;28;20112;-68
2022/01/08 08:32:29;;;;;;;49.53;12.98;;;0.90;99.90;;;;;;5073341;28;20400;-68
2022/01/08 08:34:55;;;;;;;51.35;13.00;;;0.90;99.90;;;;;;5089988;28;20040;-68
2022/01/08 08:37:20;;;;;;;48.45;14.55;;;1.00;99.90;;;;;;5090388;28;20119;-68
2022/01/08 08:39:46;;;;;;;48.88;13.80;;;1.00;99.90;;;;;;5097842;28;20036;-68
2022/01/08 08:42:11;;;;;;;54.17;13.63;;;1.10;99.90;;;;;;5097452;28;20044;-69
2022/01/08 08:44:37;;;;;;;42.33;13.48;;;1.20;99.90;;;;;;5080328;28;20115;-69
2022/01/08 08:47:04;;;;;;;43.13;13.65;;;1.20;99.90;;;;;;5088334;28;20245;-68
2022/01/08 08:49:30;;;;;;;53.97;15.65;;;1.30;99.90;;;;;;5089036;28;20040;-68
2022/01/08 08:51:55;;;;;;;49.35;14.00;;;1.30;99.90;;;;;;5086745;28;20040;-67
2022/01/08 08:54:21;;;;;;;46.42;13.98;;;1.40;99.90;;;;;;5077464;28;20032;-68
2022/01/08 08:56:47;;;;;;;46.38;14.18;;;1.40;99.90;;;;;;5085288;28;20073;-69
2022/01/08 08:59:12;;;;;;;43.28;13.02;;;1.40;99.90;;;;;;5089635;28;20111;-68
2022/01/08 09:01:38;;;;;;;38.42;12.02;;;1.40;99.90;;;;;;5068958;28;20435;-69
2022/01/08 09:04:04;;;;;;;41.13;12.55;;;1.50;99.90;;;;;;5092780;28;20463;-69
2022/01/08 09:06:30;;;;;;;41.50;12.70;;;1.50;99.90;;;;;;5090091;28;20046;-69
2022/01/08 09:08:56;;;;;;;41.30;12.23;;;1.50;99.90;;;;;;5086216;28;20093;-69
2022/01/08 09:11:22;;;;;;;48.28;12.05;;;1.50;99.90;;;;;;5085833;28;20501;-69
2022/01/08 09:13:48;;;;;;;43.42;12.18;;;1.60;99.90;;;;;;5090321;28;20043;-70
2022/01/08 09:16:13;;;;;;;37.80;12.45;;;1.60;99.90;;;;;;5090175;28;20074;-70
2022/01/08 09:18:41;;;;;;;42.65;13.18;;;1.50;99.90;;;;;;5090417;28;20501;-70
2022/01/08 09:21:08;;;;;;;52.05;14.88;;;1.60;99.90;;;;;;5089491;28;20122;-70
2022/01/08 09:23:34;;;;;;;42.63;13.30;;;1.60;99.90;;;;;;5087832;28;20448;-70
2022/01/08 09:26:00;;;;;;;41.63;13.05;;;1.60;99.90;;;;;;5091171;28;20525;-69
2022/01/08 09:28:27;;;;;;;44.72;13.20;;;1.60;99.90;;;;;;5077958;28;20060;-69
2022/01/08 09:30:54;;;;;;;58.90;16.13;;;1.60;99.90;;;;;;5084693;28;20119;-69
2022/01/08 09:33:20;;;;;;;47.05;15.25;;;1.60;99.90;;;;;;5087228;28;20056;-69
2022/01/08 09:35:46;;;;;;;47.50;15.30;;;1.60;99.90;;;;;;5086487;28;20624;-69
2022/01/08 09:38:12;;;;;;;48.60;15.30;;;1.60;99.90;;;;;;5085345;28;20275;-69
2022/01/08 09:40:38;;;;;;;56.67;17.13;;;1.60;99.90;;;;;;5094152;28;20402;-69
2022/01/08 09:43:04;;;;;;;56.55;15.82;;;1.60;99.90;;;;;;5089217;28;20040;-69
2022/01/08 09:45:30;;;;;;;43.95;15.25;;;1.60;99.90;;;;;;5093374;28;20105;-68
2022/01/08 09:47:56;;;;;;;61.38;17.45;;;1.60;99.90;;;;;;5087213;28;20398;-69
2022/01/08 09:50:21;;;;;;;48.55;16.05;;;1.60;99.90;;;;;;5084224;28;20043;-69
2022/01/08 09:52:47;;;;;;;53.35;16.98;;;1.60;99.90;;;;;;5094618;28;20093;-69
2022/01/08 09:55:13;;;;;;;56.60;17.38;;;1.60;99.90;;;;;;5072493;28;20068;-69
2022/01/08 09:57:38;;;;;;;50.40;17.10;;;1.70;99.90;;;;;;5096496;28;20032;-69
2022/01/08 10:00:13;;;;;;;62.97;18.70;;;1.70;99.90;;;;;;5082541;28;20305;-68
2022/01/08 10:02:38;;;;;;;57.28;18.90;;;1.80;99.90;;;;;;5094661;28;20043;-69
2022/01/08 10:05:10;;;;;;;57.38;19.35;;;1.90;99.90;;;;;;5092806;28;20039;-69
2022/01/08 10:07:36;;;;;;;63.08;20.83;;;2.00;99.90;;;;;;5084388;28;20075;-69
2022/01/08 10:10:12;;;;;;;64.18;21.08;;;2.10;99.90;;;;;;5087260;28;20458;-68
2022/01/08 10:12:50;;;;;;;62.38;21.90;;;2.20;99.90;;;;;;5082027;28;20047;-69
2022/01/08 10:18:30;;;;;;;65.65;22.90;;;2.30;99.90;;;;;;5080881;28;20405;-68
2022/01/08 10:20:56;;;;;;;66.97;22.45;;;2.40;99.90;;;;;;5099164;28;20066;-68
2022/01/08 10:23:23;;;;;;;65.18;21.73;;;2.60;99.90;;;;;;5085772;28;20471;-68
2022/01/08 10:26:07;;;;;;;66.13;20.85;;;2.70;99.90;;;;;;5091758;28;20378;-69
2022/01/08 10:29:05;;;;;;;60.15;20.70;;;2.80;99.90;;;;;;5090781;28;20040;-69
2022/01/08 10:31:44;;;;;;;65.97;20.23;;;2.80;99.90;;;;;;5076687;28;20044;-69
2022/01/08 10:34:18;;;;;;;56.00;19.95;;;2.90;99.90;;;;;;5108461;28;20053;-69
2022/01/08 10:37:04;;;;;;;55.28;18.85;;;2.90;99.90;;;;;;5100197;28;20035;-68
2022/01/08 10:39:35;;;;;;;55.53;18.65;;;2.90;99.90;;;;;;5080551;28;20392;-69
2022/01/08 10:42:09;;;;;;;52.28;19.17;;;3.00;99.90;;;;;;5091212;28;20143;-68
2022/01/08 10:44:34;;;;;;;47.63;19.02;;;3.00;99.90;;;;;;5090459;28;20040;-70
2022/01/08 10:47:06;;;;;;;57.05;18.85;;;3.10;99.90;;;;;;5086965;28;20456;-69
2022/01/08 10:50:05;;;;;;;58.85;20.83;;;3.10;99.90;;;;;;5086614;28;20440;-70
2022/01/08 10:52:47;;;;;;;52.63;18.98;;;3.20;99.90;;;;;;5088121;28;20041;-69
2022/01/08 10:55:13;;;;;;;52.05;18.88;;;3.30;99.90;;;;;;5086834;28;20110;-69
2022/01/08 10:57:41;;;;;;;53.83;19.08;;;3.30;99.90;;;;;;5100711;28;20538;-69
2022/01/08 11:00:12;;;;;;;57.28;20.75;;;3.40;99.90;;;;;;5083901;28;20036;-68
2022/01/08 11:02:43;;;;;;;59.42;20.27;;;3.40;99.90;;;;;;5090421;28;20044;-70
2022/01/08 11:05:11;;;;;;;56.10;20.70;;;3.40;99.90;;;;;;5095963;28;20031;-69
2022/01/08 11:07:39;;;;;;;62.35;21.65;;;3.50;99.90;;;;;;5096850;28;20376;-70
2022/01/08 11:10:08;;;;;;;58.95;21.95;;;3.50;99.90;;;;;;5087554;28;20044;-68
2022/01/08 11:12:40;;;;;;;69.20;24.00;;;3.60;99.90;;;;;;5091436;28;20035;-70
2022/01/08 11:17:45;;;;;;;61.38;24.42;;;3.70;99.90;;;;;;5090436;28;20407;-71
2022/01/08 11:20:14;;;;;;;70.38;25.95;;;3.70;99.90;;;;;;5090770;28;20118;-70
2022/01/08 11:22:43;;;;;;;70.18;26.67;;;3.70;99.90;;;;;;5066750;28;20075;-70
2022/01/08 11:25:31;;;;;;;72.82;26.63;;;3.70;99.90;;;;;;5090857;28;20047;-69
2022/01/08 11:28:14;;;;;;;73.63;28.00;;;3.70;99.90;;;;;;5074121;28;20097;-69
2022/01/08 11:30:42;;;;;;;88.10;29.75;;;3.70;99.90;;;;;;5103246;28;20057;-69
2022/01/08 11:33:15;;;;;;;81.13;28.95;;;3.70;99.90;;;;;;5091985;28;20072;-71
2022/01/08 11:35:43;;;;;;;72.60;28.70;;;3.80;99.90;;;;;;5081656;28;20040;-71
2022/01/08 11:38:12;;;;;;;85.28;29.90;;;3.80;99.90;;;;;;5071466;28;20417;-69
2022/01/08 11:40:40;;;;;;;90.03;31.52;;;3.80;99.90;;;;;;5071537;28;20320;-69
2022/01/08 11:43:08;;;;;;;83.22;31.35;;;3.80;99.90;;;;;;5077473;28;20433;-70
2022/01/08 11:45:39;;;;;;;82.65;32.47;;;3.90;99.90;;;;;;5070119;28;20101;-69
2022/01/08 11:48:08;;;;;;;94.90;34.28;;;4.00;99.90;;;;;;5089340;28;20052;-70
2022/01/08 11:50:34;;;;;;;84.97;32.47;;;4.00;99.90;;;;;;5085983;28;20062;-69
2022/01/08 11:53:16;;;;;;;100.43;35.47;;;4.00;99.90;;;;;;5089647;28;20036;-69
2022/01/08 11:55:44;;;;;;;92.15;36.40;;;4.10;99.90;;;;;;5086211;28;20028;-71
2022/01/08 11:58:26;;;;;;;105.38;37.63;;;4.10;99.90;;;;;;5096057;28;20123;-71
2022/01/08 12:00:57;;;;;;;99.93;36.35;;;4.10;99.90;;;;;;5100499;28;20039;-71
2022/01/08 12:03:34;;;;;;;99.07;38.70;;;4.10;99.90;;;;;;5080948;28;20043;-68
2022/01/08 12:06:20;;;;;;;100.10;37.20;;;4.10;99.90;;;;;;5090715;28;20046;-69
2022/01/08 12:09:26;;;;;;;105.25;37.00;;;4.10;99.90;;;;;;5092224;28;20040;-68
2022/01/08 12:12:04;;;;;;;93.57;36.13;;;4.00;99.90;;;;;;5088266;28;20043;-71
2022/01/08 12:14:41;;;;;;;108.90;37.17;;;4.00;99.90;;;;;;5087286;28;20040;-76
2022/01/08 12:17:20;;;;;;;96.22;36.25;;;4.00;99.90;;;;;;5092437;28;20028;-70
2022/01/08 12:19:57;;;;;;;100.72;36.03;;;4.00;99.90;;;;;;5088210;28;20047;-76
2022/01/08 12:22:23;;;;;;;100.28;36.75;;;4.00;99.90;;;;;;5087183;28;20097;-70
2022/01/08 12:24:52;;;;;;;94.85;35.90;;;4.00;99.90;;;;;;5088483;28;20043;-72
2022/01/08 12:27:34;;;;;;;98.85;35.72;;;4.00;99.90;;;;;;5083431;28;20122;-73
2022/01/08 12:30:22;;;;;;;92.13;34.97;;;4.00;99.90;;;;;;5088290;28;20043;-70
2022/01/08 12:32:51;;;;;;;93.47;35.05;;;4.00;99.90;;;;;;5094939;28;20486;-72
2022/01/08 12:35:21;;;;;;;95.43;34.92;;;4.00;99.90;;;;;;5105857;28;20024;-71
2022/01/08 12:37:50;;;;;;;96.80;35.15;;;4.10;99.90;;;;;;5087832;28;20048;-71
2022/01/08 12:40:34;;;;;;;92.20;34.20;;;4.00;99.90;;;;;;5085817;28;20068;-74
2022/01/08 12:43:34;;;;;;;91.95;31.80;;;4.00;99.90;;;;;;5069074;28;20032;-70
2022/01/08 12:46:22;;;;;;;74.90;30.33;;;4.00;99.90;;;;;;5084555;28;20100;-72
2022/01/08 12:49:20;;;;;;;91.97;33.05;;;4.00;99.90;;;;;;5105294;28;20044;-69
2022/01/08 12:51:49;;;;;;;87.72;31.02;;;4.00;99.90;;;;;;5017238;28;20055;-72
2022/01/08 12:54:19;;;;;;;87.57;30.95;;;4.00;99.90;;;;;;5089820;28;20364;-71
2022/01/08 12:56:49;;;;;;;88.22;30.40;;;4.00;99.90;;;;;;5088821;28;20040;-70
2022/01/08 12:59:16;;;;;;;80.75;28.35;;;4.00;99.90;;;;;;5095663;28;20051;-72
2022/01/08 13:01:46;;;;;;;87.68;28.92;;;4.00;99.90;;;;;;5076807;28;20035;-74
2022/01/08 13:04:17;;;;;;;83.45;29.13;;;4.00;99.90;;;;;;5085180;28;20032;-74
2022/01/08 13:06:44;;;;;;;71.20;25.92;;;4.00;99.90;;;;;;5081855;28;20044;-70
2022/01/08 13:09:10;;;;;;;70.40;25.80;;;4.00;99.90;;;;;;5063068;28;20032;-70
2022/01/08 13:11:37;;;;;;;70.55;27.38;;;4.00;99.90;;;;;;5082632;28;20044;-73